createdAt,value
2022-12-04T00:00:13.502Z,32.45
2022-12-04T00:02:41.808Z,32.60
2022-12-04T00:05:10.046Z,32.38
2022-12-04T00:07:37.292Z,31.20
2022-12-04T00:10:05.071Z,29.52
2022-12-04T00:12:32.155Z,30.88
2022-12-04T00:17:49.315Z,30.80
2022-12-04T00:20:16.216Z,32.08
2022-12-04T00:22:43.153Z,31.27
2022-12-04T00:25:10.039Z,31.50
2022-12-04T00:27:36.975Z,31.55
2022-12-04T00:30:04.711Z,34.93
2022-12-04T00:32:31.698Z,32.93
2022-12-04T00:34:58.613Z,33.95
2022-12-04T00:37:25.763Z,33.33
2022-12-04T00:39:52.783Z,35.50
2022-12-04T00:42:20.059Z,33.95
2022-12-04T00:44:46.921Z,33.50
2022-12-04T00:47:13.859Z,33.15
2022-12-04T00:49:40.824Z,33.07
2022-12-04T00:52:07.814Z,33.45
2022-12-04T00:54:34.658Z,32.63
2022-12-04T00:57:01.676Z,31.85
2022-12-04T00:59:28.638Z,32.78
2022-12-04T01:01:55.614Z,31.48
2022-12-04T01:04:22.550Z,33.33
2022-12-04T01:06:49.457Z,31.85
2022-12-04T01:09:16.442Z,33.70
2022-12-04T01:11:43.314Z,32.47
2022-12-04T01:14:10.274Z,31.37
2022-12-04T01:16:39.614Z,32.50
2022-12-04T01:19:08.847Z,32.33
2022-12-04T01:21:37.562Z,30.98
2022-12-04T01:24:05.355Z,30.85
2022-12-04T01:26:32.456Z,30.30
2022-12-04T01:28:59.555Z,31.30
2022-12-04T01:31:26.873Z,31.70
2022-12-04T01:33:54.233Z,29.02
2022-12-04T01:36:23.782Z,29.23
2022-12-04T01:38:50.862Z,31.70
2022-12-04T01:41:21.211Z,30.17
2022-12-04T01:44:26.788Z,32.75
2022-12-04T01:46:59.394Z,30.10
2022-12-04T01:49:33.599Z,31.65
2022-12-04T01:52:19.040Z,32.50
2022-12-04T01:54:50.086Z,31.25
2022-12-04T01:57:20.337Z,31.27
2022-12-04T01:59:52.165Z,29.63
2022-12-04T02:02:26.232Z,30.10
2022-12-04T02:04:54.207Z,30.80
2022-12-04T02:07:21.066Z,32.10
2022-12-04T02:09:53.912Z,29.40
2022-12-04T02:12:36.690Z,31.13
2022-12-04T02:15:08.969Z,29.52
2022-12-04T02:17:49.771Z,31.33
2022-12-04T02:20:23.644Z,28.48
2022-12-04T02:23:08.603Z,29.40
2022-12-04T02:25:41.722Z,28.65
2022-12-04T02:28:09.945Z,28.95
2022-12-04T02:30:41.274Z,28.80
2022-12-04T02:33:22.192Z,30.05
2022-12-04T02:35:56.335Z,29.98
2022-12-04T02:38:32.486Z,29.77
2022-12-04T02:41:27.650Z,30.08
2022-12-04T02:44:05.226Z,28.67
2022-12-04T02:46:37.913Z,29.20
2022-12-04T02:49:10.234Z,29.10
2022-12-04T02:51:40.694Z,30.17
2022-12-04T02:54:30.938Z,29.15
2022-12-04T02:56:59.978Z,29.38
2022-12-04T02:59:35.635Z,29.27
2022-12-04T03:02:10.622Z,30.33
2022-12-04T03:04:39.766Z,29.90
2022-12-04T03:07:16.826Z,30.45
2022-12-04T03:09:52.736Z,29.13
2022-12-04T03:12:25.909Z,29.90
2022-12-04T03:15:02.385Z,29.02
2022-12-04T03:17:46.163Z,27.83
2022-12-04T03:20:15.507Z,27.02
2022-12-04T03:22:45.039Z,27.38
2022-12-04T03:25:12.165Z,28.45
2022-12-04T03:27:51.761Z,26.58
2022-12-04T03:30:21.891Z,26.67
2022-12-04T03:33:15.138Z,26.02
2022-12-04T03:35:41.871Z,25.48
2022-12-04T03:38:37.783Z,26.38
2022-12-04T03:41:27.098Z,26.52
2022-12-04T03:44:06.690Z,24.85
2022-12-04T03:46:47.249Z,24.77
2022-12-04T03:49:33.062Z,24.38
2022-12-04T03:52:09.459Z,25.20
2022-12-04T03:54:47.785Z,25.10
2022-12-04T03:57:24.401Z,24.00
2022-12-04T04:00:12.243Z,24.10
2022-12-04T04:02:48.622Z,24.10
2022-12-04T04:05:16.557Z,24.58
2022-12-04T04:08:17.403Z,25.17
2022-12-04T04:10:44.883Z,24.65
2022-12-04T04:13:47.262Z,24.73
2022-12-04T04:16:36.350Z,24.00
2022-12-04T04:19:24.131Z,24.85
2022-12-04T04:22:11.193Z,23.10
2022-12-04T04:24:42.711Z,24.52
2022-12-04T04:27:09.642Z,24.38
2022-12-04T04:29:37.155Z,23.17
2022-12-04T04:32:06.893Z,22.85
2022-12-04T04:35:03.447Z,22.92
2022-12-04T04:37:56.331Z,23.20
2022-12-04T04:40:41.106Z,22.13
2022-12-04T04:43:20.227Z,23.92
2022-12-04T04:46:02.657Z,23.30
2022-12-04T04:48:37.002Z,22.23
2022-12-04T04:51:05.523Z,21.80
2022-12-04T04:53:52.572Z,25.33
2022-12-04T04:56:21.833Z,23.38
2022-12-04T04:58:48.710Z,21.80
2022-12-04T05:01:19.020Z,22.58
2022-12-04T05:03:46.478Z,22.20
2022-12-04T05:06:13.697Z,21.75
2022-12-04T05:08:41.010Z,22.77
2022-12-04T05:11:13.895Z,21.83
2022-12-04T05:13:41.679Z,22.02
2022-12-04T05:16:12.007Z,21.10
2022-12-04T05:18:39.067Z,21.48
2022-12-04T05:21:17.915Z,23.10
2022-12-04T05:23:44.808Z,22.58
2022-12-04T05:26:11.921Z,22.00
2022-12-04T05:28:40.839Z,20.80
2022-12-04T05:31:07.827Z,21.40
2022-12-04T05:33:34.874Z,21.35
2022-12-04T05:36:10.325Z,20.63
2022-12-04T05:38:37.531Z,21.00
2022-12-04T05:41:06.546Z,21.70
2022-12-04T05:43:33.827Z,21.20
2022-12-04T05:46:02.577Z,22.30
2022-12-04T05:48:29.401Z,21.83
2022-12-04T05:50:56.355Z,21.13
2022-12-04T05:53:23.369Z,21.00
2022-12-04T05:55:57.802Z,21.15
2022-12-04T05:58:25.811Z,21.23
2022-12-04T06:00:52.904Z,21.15
2022-12-04T06:03:20.450Z,21.38
2022-12-04T06:05:47.340Z,20.83
2022-12-04T06:08:14.656Z,20.38
2022-12-04T06:10:41.961Z,20.50
2022-12-04T06:13:08.998Z,20.70
2022-12-04T06:15:39.660Z,20.33
2022-12-04T06:18:07.217Z,20.83
2022-12-04T06:20:34.783Z,20.73
2022-12-04T06:23:01.943Z,20.60
2022-12-04T06:25:28.858Z,20.17
2022-12-04T06:27:55.820Z,20.73
2022-12-04T06:30:22.770Z,20.95
2022-12-04T06:32:49.608Z,20.65
2022-12-04T06:35:16.438Z,20.85
2022-12-04T06:37:43.300Z,21.90
2022-12-04T06:40:10.503Z,21.50
2022-12-04T06:42:37.375Z,20.10
2022-12-04T06:45:04.588Z,20.40
2022-12-04T06:47:31.336Z,20.88
2022-12-04T06:49:58.543Z,23.20
2022-12-04T06:52:25.597Z,22.63
2022-12-04T06:54:52.476Z,22.33
2022-12-04T06:57:19.316Z,21.48
2022-12-04T06:59:46.070Z,21.10
2022-12-04T07:02:12.973Z,22.08
2022-12-04T07:04:39.863Z,22.38
2022-12-04T07:07:09.904Z,23.30
2022-12-04T07:09:36.871Z,22.35
2022-12-04T07:12:03.886Z,21.48
2022-12-04T07:14:30.834Z,22.20
2022-12-04T07:16:58.478Z,22.38
2022-12-04T07:19:25.490Z,22.38
2022-12-04T07:21:52.287Z,21.50
2022-12-04T07:24:19.318Z,22.13
2022-12-04T07:26:47.064Z,21.92
2022-12-04T07:29:14.237Z,23.20
2022-12-04T07:31:41.086Z,21.95
2022-12-04T07:34:07.981Z,22.05
2022-12-04T07:36:34.976Z,21.15
2022-12-04T07:39:01.845Z,22.20
2022-12-04T07:41:28.612Z,23.33
2022-12-04T07:43:55.368Z,21.60
2022-12-04T07:46:26.169Z,22.88
2022-12-04T07:48:55.178Z,21.85
2022-12-04T07:51:23.858Z,21.98
2022-12-04T07:53:53.206Z,22.23
2022-12-04T07:56:20.614Z,22.43
2022-12-04T07:58:47.570Z,22.40
2022-12-04T08:01:21.625Z,23.85
2022-12-04T08:03:50.852Z,23.63
2022-12-04T08:06:20.305Z,23.33
2022-12-04T08:08:47.738Z,23.58
2022-12-04T08:11:21.146Z,24.03
2022-12-04T08:13:48.347Z,23.15
2022-12-04T08:16:15.787Z,23.15
2022-12-04T08:18:46.712Z,23.70
2022-12-04T08:21:17.022Z,24.40
2022-12-04T08:23:44.630Z,22.23
2022-12-04T08:26:12.129Z,22.13
2022-12-04T08:28:40.339Z,22.77
2022-12-04T08:31:18.774Z,22.50
2022-12-04T08:33:47.375Z,23.30
2022-12-04T08:36:17.487Z,26.77
2022-12-04T08:38:44.286Z,27.40
2022-12-04T08:41:13.554Z,23.15
2022-12-04T08:43:40.930Z,22.85
2022-12-04T08:46:13.208Z,42.20
2022-12-04T08:48:40.669Z,25.02
2022-12-04T08:51:12.167Z,23.23
2022-12-04T08:53:39.015Z,25.30
2022-12-04T08:56:06.278Z,23.27
2022-12-04T08:58:33.071Z,24.25
2022-12-04T09:01:14.691Z,24.98
2022-12-04T09:03:42.310Z,24.75
2022-12-04T09:06:11.159Z,22.88
2022-12-04T09:08:38.753Z,23.25
2022-12-04T09:11:08.163Z,25.80
2022-12-04T09:13:35.819Z,24.25
2022-12-04T09:16:11.273Z,24.02
2022-12-04T09:18:39.145Z,25.05
2022-12-04T09:21:09.479Z,23.80
2022-12-04T09:23:37.731Z,24.60
2022-12-04T09:26:06.385Z,24.10
2022-12-04T09:28:33.206Z,23.35
2022-12-04T09:31:05.537Z,23.83
2022-12-04T09:33:32.887Z,23.67
2022-12-04T09:36:01.177Z,23.60
2022-12-04T09:38:28.965Z,24.15
2022-12-04T09:41:19.134Z,23.42
2022-12-04T09:44:11.113Z,24.95
2022-12-04T09:46:42.960Z,23.15
2022-12-04T09:49:44.606Z,24.60
2022-12-04T09:52:34.603Z,24.33
2022-12-04T09:55:04.302Z,23.70
2022-12-04T09:57:55.916Z,29.70
2022-12-04T10:00:28.346Z,25.48
2022-12-04T10:03:03.868Z,24.80
2022-12-04T10:05:44.285Z,24.73
2022-12-04T10:08:30.035Z,23.42
2022-12-04T10:11:15.911Z,24.10
2022-12-04T10:14:01.473Z,24.73
2022-12-04T10:16:46.421Z,23.33
2022-12-04T10:19:37.735Z,28.13
2022-12-04T10:22:37.435Z,23.77
2022-12-04T10:25:23.726Z,23.67
2022-12-04T10:28:00.689Z,25.25
2022-12-04T10:30:31.200Z,28.58
2022-12-04T10:33:13.543Z,25.10
2022-12-04T10:35:43.877Z,25.10
2022-12-04T10:38:32.524Z,23.92
2022-12-04T10:41:27.285Z,25.15
2022-12-04T10:43:54.268Z,51.10
2022-12-04T10:46:30.367Z,32.10
2022-12-04T10:49:09.607Z,28.95
2022-12-04T10:51:40.747Z,24.70
2022-12-04T10:54:19.913Z,30.95
2022-12-04T10:56:54.107Z,35.22
2022-12-04T10:59:21.161Z,25.90
2022-12-04T11:01:49.155Z,25.38
2022-12-04T11:04:25.303Z,25.33
2022-12-04T11:07:04.535Z,26.35
2022-12-04T11:09:32.814Z,24.25
2022-12-04T11:12:29.548Z,26.90
2022-12-04T11:15:13.831Z,25.23
2022-12-04T11:17:40.782Z,26.00
2022-12-04T11:20:21.248Z,25.27
2022-12-04T11:22:54.186Z,25.13
2022-12-04T11:25:22.738Z,26.42
2022-12-04T11:27:54.677Z,25.55
2022-12-04T11:30:29.727Z,25.23
2022-12-04T11:32:57.507Z,25.60
2022-12-04T11:35:27.566Z,26.65
2022-12-04T11:38:09.236Z,25.92
2022-12-04T11:40:37.026Z,24.70
2022-12-04T11:43:11.867Z,24.70
2022-12-04T11:45:39.016Z,25.48
2022-12-04T11:48:17.254Z,26.87
2022-12-04T11:50:52.002Z,26.05
2022-12-04T11:53:55.637Z,26.58
2022-12-04T11:56:25.631Z,26.50
2022-12-04T11:59:30.395Z,27.08
2022-12-04T12:02:20.179Z,29.42
2022-12-04T12:05:08.967Z,27.10
2022-12-04T12:07:51.843Z,27.48
2022-12-04T12:10:34.271Z,26.02
2022-12-04T12:13:04.178Z,26.97
2022-12-04T12:15:41.204Z,27.48
2022-12-04T12:18:32.101Z,26.25
2022-12-04T12:21:22.715Z,27.35
2022-12-04T12:24:18.006Z,27.65
2022-12-04T12:26:57.789Z,27.48
2022-12-04T12:29:52.468Z,26.83
2022-12-04T12:32:53.825Z,28.05
2022-12-04T12:36:07.933Z,29.30
2022-12-04T12:38:50.040Z,29.65
2022-12-04T12:41:23.598Z,28.90
2022-12-04T12:44:02.750Z,29.08
2022-12-04T12:46:37.410Z,30.25
2022-12-04T12:49:30.658Z,29.73
2022-12-04T12:52:07.070Z,29.00
2022-12-04T12:54:39.723Z,46.07
2022-12-04T12:57:13.671Z,33.53
2022-12-04T12:59:52.038Z,36.90
2022-12-04T13:02:30.839Z,34.33
2022-12-04T13:05:04.166Z,29.42
2022-12-04T13:07:58.723Z,28.70
2022-12-04T13:11:02.079Z,28.27
2022-12-04T13:13:32.778Z,28.88
2022-12-04T13:16:08.862Z,29.40
2022-12-04T13:18:41.319Z,28.70
2022-12-04T13:21:15.842Z,27.02
2022-12-04T13:23:55.958Z,28.15
2022-12-04T13:26:57.163Z,28.90
2022-12-04T13:30:11.319Z,28.85
2022-12-04T13:32:56.994Z,29.60
2022-12-04T13:36:01.535Z,31.55
2022-12-04T13:38:51.534Z,33.20
2022-12-04T13:41:23.369Z,31.10
2022-12-04T13:43:52.782Z,31.08
2022-12-04T13:46:35.196Z,33.47
2022-12-04T13:49:20.301Z,34.28
2022-12-04T13:51:48.577Z,31.05
2022-12-04T13:54:15.289Z,30.90
2022-12-04T13:56:44.958Z,30.90
2022-12-04T13:59:27.087Z,31.38
2022-12-04T14:02:23.094Z,31.38
2022-12-04T14:05:03.681Z,31.58
2022-12-04T14:07:56.939Z,30.97
2022-12-04T14:10:31.590Z,30.25
2022-12-04T14:13:20.948Z,31.00
2022-12-04T14:15:48.436Z,32.45
2022-12-04T14:18:27.841Z,34.10
2022-12-04T14:21:04.791Z,33.47
2022-12-04T14:23:42.803Z,35.55
2022-12-04T14:26:37.388Z,31.95
2022-12-04T14:29:35.185Z,32.38
2022-12-04T14:32:10.224Z,29.67
2022-12-04T14:34:38.617Z,33.13
2022-12-04T14:37:05.828Z,34.10
2022-12-04T14:39:34.859Z,30.20
2022-12-04T14:42:17.934Z,32.85
2022-12-04T14:44:45.798Z,29.27
2022-12-04T14:47:40.461Z,28.23
2022-12-04T14:50:41.036Z,28.23
2022-12-04T14:53:32.202Z,28.63
2022-12-04T14:56:36.346Z,31.73
2022-12-04T14:59:15.205Z,31.67
2022-12-04T15:01:42.406Z,31.38
2022-12-04T15:04:29.558Z,31.23
2022-12-04T15:07:00.463Z,30.60
2022-12-04T15:09:46.761Z,31.52
2022-12-04T15:12:35.388Z,32.80
2022-12-04T15:15:19.610Z,31.40
2022-12-04T15:18:02.283Z,31.40
2022-12-04T15:20:39.529Z,30.98
2022-12-04T15:23:06.754Z,31.60
2022-12-04T15:25:55.145Z,33.40
2022-12-04T15:28:27.694Z,30.37
2022-12-04T15:30:56.872Z,30.63
2022-12-04T15:33:34.364Z,30.27
2022-12-04T15:36:07.021Z,29.55
2022-12-04T15:38:35.103Z,30.17
2022-12-04T15:41:02.379Z,29.93
2022-12-04T15:43:32.834Z,29.13
2022-12-04T15:46:00.663Z,29.25
2022-12-04T15:48:31.473Z,30.02
2022-12-04T15:51:02.760Z,28.60
2022-12-04T15:53:33.345Z,30.42
2022-12-04T15:56:08.501Z,27.20
2022-12-04T15:58:56.135Z,29.00
2022-12-04T16:01:23.358Z,31.23
2022-12-04T16:03:52.311Z,30.02
2022-12-04T16:06:28.584Z,28.73
2022-12-04T16:09:20.334Z,32.60
2022-12-04T16:11:56.728Z,31.17
2022-12-04T16:14:23.603Z,30.95
2022-12-04T16:16:52.777Z,31.05
2022-12-04T16:19:33.906Z,30.40
2022-12-04T16:22:04.517Z,30.50
2022-12-04T16:24:31.462Z,30.58
2022-12-04T16:27:00.338Z,32.30
2022-12-04T16:29:27.271Z,31.60
2022-12-04T16:31:58.265Z,32.25
2022-12-04T16:34:29.523Z,33.10
2022-12-04T16:36:56.530Z,33.20
2022-12-04T16:39:23.409Z,32.15
2022-12-04T16:41:50.418Z,31.63
2022-12-04T16:44:19.629Z,30.73
2022-12-04T16:46:46.717Z,32.28
2022-12-04T16:49:14.328Z,29.50
2022-12-04T16:51:46.094Z,32.45
2022-12-04T16:54:13.953Z,30.95
2022-12-04T16:56:41.656Z,30.70
2022-12-04T16:59:12.090Z,31.08
2022-12-04T17:01:47.722Z,32.95
2022-12-04T17:04:16.005Z,30.23
2022-12-04T17:06:44.010Z,31.05
2022-12-04T17:09:11.862Z,31.17
2022-12-04T17:11:39.018Z,31.75
2022-12-04T17:14:09.634Z,30.67
2022-12-04T17:16:38.973Z,30.40
2022-12-04T17:19:06.899Z,30.13
2022-12-04T17:21:34.295Z,30.93
2022-12-04T17:24:02.161Z,32.95
2022-12-04T17:26:29.178Z,30.38
2022-12-04T17:28:56.018Z,32.10
2022-12-04T17:31:25.433Z,32.17
2022-12-04T17:33:52.604Z,31.15
2022-12-04T17:36:22.655Z,31.83
2022-12-04T17:38:53.958Z,30.30
2022-12-04T17:41:20.694Z,34.63
2022-12-04T17:43:47.778Z,34.85
2022-12-04T17:46:19.665Z,33.55
2022-12-04T17:48:46.834Z,33.75
2022-12-04T17:51:20.646Z,33.30
2022-12-04T17:53:47.682Z,32.40
2022-12-04T17:56:19.990Z,31.40
2022-12-04T17:58:48.054Z,33.97
2022-12-04T18:01:17.922Z,32.70
2022-12-04T18:03:50.078Z,33.65
2022-12-04T18:06:22.334Z,32.45
2022-12-04T18:08:50.374Z,31.75
2022-12-04T18:11:22.695Z,33.22
2022-12-04T18:13:54.213Z,32.83
2022-12-04T18:16:21.352Z,31.27
2022-12-04T18:18:48.289Z,31.52
2022-12-04T18:21:15.476Z,32.70
2022-12-04T18:23:46.079Z,32.60
2022-12-04T18:26:18.950Z,31.65
2022-12-04T18:28:46.899Z,31.70
2022-12-04T18:31:15.212Z,31.55
2022-12-04T18:33:43.143Z,32.63
2022-12-04T18:36:21.823Z,34.22
2022-12-04T18:38:55.239Z,33.70
2022-12-04T18:41:22.255Z,31.80
2022-12-04T18:43:49.145Z,31.65
2022-12-04T18:46:17.343Z,31.77
2022-12-04T18:48:45.486Z,32.50
2022-12-04T18:51:15.528Z,31.23
2022-12-04T18:53:42.782Z,33.25
2022-12-04T18:56:09.917Z,30.25
2022-12-04T18:58:36.718Z,31.10
2022-12-04T19:01:08.478Z,32.92
2022-12-04T19:03:35.513Z,29.40
2022-12-04T19:06:03.424Z,31.77
2022-12-04T19:08:34.213Z,29.97
2022-12-04T19:11:14.410Z,29.92
2022-12-04T19:13:42.223Z,29.48
2022-12-04T19:16:16.780Z,30.27
2022-12-04T19:18:45.315Z,31.08
2022-12-04T19:21:16.778Z,30.67
2022-12-04T19:23:58.100Z,29.33
2022-12-04T19:26:26.782Z,29.53
2022-12-04T19:28:54.910Z,30.17
2022-12-04T19:31:24.885Z,32.13
2022-12-04T19:33:53.524Z,30.67
2022-12-04T19:36:20.763Z,30.88
2022-12-04T19:38:47.691Z,30.80
2022-12-04T19:41:18.559Z,30.30
2022-12-04T19:43:48.541Z,31.97
2022-12-04T19:46:18.003Z,30.63
2022-12-04T19:48:47.141Z,30.27
2022-12-04T19:51:16.585Z,30.83
2022-12-04T19:53:43.948Z,31.80
2022-12-04T19:56:16.930Z,33.17
2022-12-04T19:58:44.159Z,30.60
2022-12-04T20:01:14.177Z,32.97
2022-12-04T20:03:41.026Z,31.73
2022-12-04T20:06:10.775Z,32.00
2022-12-04T20:08:38.414Z,31.33
2022-12-04T20:11:08.286Z,31.17
2022-12-04T20:13:36.486Z,32.63
2022-12-04T20:16:08.478Z,31.15
2022-12-04T20:18:37.102Z,31.50
2022-12-04T20:21:10.781Z,32.20
2022-12-04T20:23:39.681Z,31.85
2022-12-04T20:26:08.965Z,31.35
2022-12-04T20:28:36.522Z,34.42
2022-12-04T20:31:20.305Z,34.28
2022-12-04T20:33:49.281Z,38.33
2022-12-04T20:36:18.859Z,34.40
2022-12-04T20:38:46.688Z,33.40
2022-12-04T20:41:16.000Z,35.72
2022-12-04T20:43:43.769Z,34.65
2022-12-04T20:46:17.523Z,35.92
2022-12-04T20:48:48.857Z,33.80
2022-12-04T20:51:20.679Z,34.90
2022-12-04T20:53:49.747Z,35.72
2022-12-04T20:56:18.487Z,36.13
2022-12-04T20:58:45.661Z,35.65
2022-12-04T21:01:16.158Z,35.97
2022-12-04T21:03:44.342Z,34.97
2022-12-04T21:06:20.742Z,33.60
2022-12-04T21:08:55.855Z,33.33
2022-12-04T21:11:34.190Z,33.30
2022-12-04T21:14:21.734Z,35.75
2022-12-04T21:16:49.111Z,35.90
2022-12-04T21:19:19.615Z,35.13
2022-12-04T21:21:47.300Z,32.13
2022-12-04T21:24:18.194Z,34.13
2022-12-04T21:26:45.210Z,33.50
2022-12-04T21:29:12.022Z,32.50
2022-12-04T21:31:39.659Z,32.28
2022-12-04T21:34:08.569Z,31.25
2022-12-04T21:36:35.654Z,31.92
2022-12-04T21:39:02.983Z,32.43
2022-12-04T21:41:48.375Z,33.28
2022-12-04T21:44:17.278Z,33.92
2022-12-04T21:46:44.957Z,32.00
2022-12-04T21:49:13.613Z,31.20
2022-12-04T21:51:56.689Z,33.20
2022-12-04T21:54:24.178Z,33.83
2022-12-04T21:56:51.029Z,37.10
2022-12-04T21:59:17.949Z,34.78
2022-12-04T22:01:44.918Z,34.83
2022-12-04T22:04:11.838Z,33.78
2022-12-04T22:06:38.713Z,33.40
2022-12-04T22:09:11.421Z,35.25
2022-12-04T22:11:39.062Z,32.40
2022-12-04T22:14:05.790Z,33.35
2022-12-04T22:16:36.914Z,33.78
2022-12-04T22:19:06.913Z,33.63
2022-12-04T22:21:33.709Z,33.80
2022-12-04T22:24:02.315Z,32.50
2022-12-04T22:26:30.190Z,32.42
2022-12-04T22:28:57.695Z,31.40
2022-12-04T22:31:28.022Z,33.75
2022-12-04T22:33:56.555Z,30.70
2022-12-04T22:36:26.195Z,32.47
2022-12-04T22:39:10.439Z,31.58
2022-12-04T22:41:38.442Z,32.22
2022-12-04T22:44:06.035Z,31.40
2022-12-04T22:46:33.361Z,32.83
2022-12-04T22:49:00.630Z,31.13
2022-12-04T22:51:28.059Z,31.58
2022-12-04T22:53:57.008Z,32.75
2022-12-04T22:56:32.919Z,34.10
2022-12-04T22:59:00.470Z,32.92
2022-12-04T23:01:32.975Z,37.88
2022-12-04T23:04:01.117Z,34.23
2022-12-04T23:06:30.387Z,33.88
2022-12-04T23:09:00.299Z,32.88
2022-12-04T23:11:28.238Z,31.73
2022-12-04T23:14:01.335Z,32.20
2022-12-04T23:16:30.246Z,32.42
2022-12-04T23:18:57.798Z,32.42
2022-12-04T23:21:24.702Z,30.63
2022-12-04T23:23:53.810Z,31.35
2022-12-04T23:26:24.203Z,30.88
2022-12-04T23:28:51.586Z,30.33
2022-12-04T23:31:19.092Z,31.52
2022-12-04T23:33:46.100Z,29.70
2022-12-04T23:36:14.144Z,30.35
2022-12-04T23:38:42.625Z,30.10
2022-12-04T23:41:15.231Z,30.48
2022-12-04T23:43:42.972Z,30.98
2022-12-04T23:46:11.850Z,31.75
2022-12-04T23:48:43.478Z,32.55
2022-12-04T23:51:11.964Z,33.35
2022-12-04T23:53:39.078Z,34.45
2022-12-04T23:56:06.235Z,35.47
2022-12-04T23:58:34.526Z,31.83
